| time (UTC) | temp C | wind direction | speed KPH | gust KPH | rain 1hr cm | rain 24hr cm | rain mn cm | humidity % | barometer mb |
| 20260506201837 | 18 | 215 | 0.0 | 11.3 | 0.00 | 0.30 | 0.30 | 87 | 1006.6 |
| 20260506200331 | 18 | 211 | 4.8 | 11.3 | 0.00 | 0.30 | 0.30 | 87 | 1006.6 |
| 20260506194843 | 17 | 221 | 8.0 | 17.7 | 0.00 | 0.30 | 0.30 | 87 | 1006.8 |
| 20260506193357 | 17 | 205 | 3.2 | 20.9 | 0.00 | 0.30 | 0.30 | 88 | 1007.0 |
| 20260506191827 | 17 | 221 | 0.0 | 14.5 | 0.00 | 0.30 | 0.30 | 88 | 1007.1 |
| 20260506190339 | 17 | 211 | 4.8 | 12.9 | 0.00 | 0.30 | 0.30 | 88 | 1007.4 |
| 20260506184831 | 17 | 187 | 3.2 | 19.3 | 0.00 | 0.30 | 0.30 | 88 | 1007.4 |
| 20260506183327 | 17 | 219 | 11.3 | 20.9 | 0.00 | 0.30 | 0.30 | 89 | 1007.6 |
| 20260506181820 | 17 | 220 | 4.8 | 17.7 | 0.00 | 0.30 | 0.30 | 89 | 1007.7 |
| 20260506180318 | 16 | 188 | 8.0 | 20.9 | 0.00 | 0.30 | 0.30 | 89 | 1007.6 |
| 20260506174832 | 16 | 232 | 6.4 | 16.1 | 0.00 | 0.30 | 0.30 | 89 | 1007.8 |
| 20260506173323 | 16 | 244 | 9.7 | 22.5 | 0.00 | 0.30 | 0.30 | 89 | 1007.8 |
| 20260506171816 | 16 | 223 | 8.0 | 16.1 | 0.03 | 0.30 | 0.30 | 88 | 1008.0 |
| 20260506170331 | 16 | 229 | 6.4 | 17.7 | 0.05 | 0.30 | 0.30 | 88 | 1007.9 |
| 20260506164817 | 16 | 183 | 6.4 | 12.9 | 0.13 | 0.30 | 0.30 | 88 | 1008.0 |
| 20260506163349 | 16 | 215 | 6.4 | 14.5 | 0.18 | 0.30 | 0.30 | 88 | 1008.1 |
| 20260506161825 | 16 | 222 | 4.8 | 9.7 | 0.20 | 0.28 | 0.28 | 88 | 1008.4 |
| 20260506160339 | 16 | 216 | 0.0 | 6.4 | 0.23 | 0.25 | 0.25 | 88 | 1009.1 |
| 20260506154831 | 16 | 217 | 4.8 | 11.3 | 0.18 | 0.18 | 0.18 | 88 | 1009.4 |
| 20260506153326 | 17 | 224 | 1.6 | 6.4 | 0.13 | 0.13 | 0.13 | 88 | 1009.2 |
| 20260506151820 | 17 | 217 | 3.2 | 19.3 | 0.05 | 0.05 | 0.05 | 86 | 1009.3 |
| 20260506150315 | 17 | 227 | 1.6 | 6.4 | 0.03 | 0.03 | 0.03 | 84 | 1009.2 |
| 20260506144827 | 18 | 209 | 4.8 | 11.3 | 0.00 | 0.00 | 0.00 | 82 | 1009.1 |
| 20260506143323 | 18 | 221 | 4.8 | 17.7 | 0.00 | 0.00 | 0.00 | 77 | 1009.2 |
| 20260506141831 | 19 | 184 | 4.8 | 22.5 | 0.00 | 0.00 | 0.00 | 74 | 1009.2 |
| 20260506140330 | 19 | 193 | 9.7 | 25.7 | 0.00 | 0.00 | 0.00 | 73 | 1009.1 |
| 20260506134824 | 19 | 231 | 9.7 | 25.7 | 0.00 | 0.00 | 0.00 | 75 | 1008.8 |
| 20260506133322 | 18 | 186 | 9.7 | 17.7 | 0.00 | 0.00 | 0.00 | 76 | 1009.1 |
| 20260506131826 | 19 | 219 | 8.0 | 20.9 | 0.00 | 0.00 | 0.00 | 75 | 1009.1 |
| 20260506130319 | 19 | 213 | 16.1 | 29.0 | 0.00 | 0.00 | 0.00 | 74 | 1009.4 |
| 20260506124834 | 19 | 187 | 4.8 | 24.1 | 0.00 | 0.00 | 0.00 | 76 | 1009.2 |
| 20260506123344 | 18 | 190 | 6.4 | 22.5 | 0.00 | 0.00 | 0.00 | 78 | 1009.3 |
| 20260506121817 | 18 | 219 | 6.4 | 17.7 | 0.00 | 0.00 | 0.00 | 79 | 1009.1 |
| 20260506120352 | 18 | 224 | 6.4 | 14.5 | 0.00 | 0.00 | 0.00 | 80 | 1009.2 |
| 20260506114901 | 17 | 202 | 3.2 | 14.5 | 0.00 | 0.00 | 0.00 | 80 | 1009.1 |
| 20260506114830 | 17 | 202 | 3.2 | 14.5 | 0.00 | 0.00 | 0.00 | 80 | 1009.1 |
| 20260506113326 | 17 | 222 | 8.0 | 20.9 | 0.00 | 0.00 | 0.00 | 81 | 1009.1 |
| 20260506111858 | 17 | 236 | 3.2 | 11.3 | 0.00 | 0.00 | 0.00 | 81 | 1009.1 |
| 20260506111827 | 17 | 236 | 3.2 | 11.3 | 0.00 | 0.00 | 0.00 | 81 | 1009.1 |
| 20260506110321 | 17 | 216 | 6.4 | 20.9 | 0.00 | 0.00 | 0.00 | 81 | 1008.9 |
| 20260506104831 | 17 | 219 | 4.8 | 14.5 | 0.00 | 0.00 | 0.00 | 82 | 1009.0 |
| 20260506103325 | 17 | 202 | 1.6 | 16.1 | 0.00 | 0.00 | 0.00 | 82 | 1008.9 |
| 20260506101821 | 17 | 175 | 1.6 | 9.7 | 0.00 | 0.00 | 0.00 | 82 | 1008.9 |
| 20260506100355 | 17 | 215 | 4.8 | 11.3 | 0.00 | 0.00 | 0.00 | 82 | 1009.0 |
| 20260506094825 | 17 | 211 | 4.8 | 14.5 | 0.00 | 0.00 | 0.00 | 81 | 1008.9 |
| 20260506093320 | 17 | 200 | 3.2 | 14.5 | 0.00 | 0.00 | 0.00 | 81 | 1008.7 |
| 20260506091829 | 18 | 194 | 3.2 | 14.5 | 0.00 | 0.00 | 0.00 | 81 | 1008.8 |
| 20260506090326 | 18 | 202 | 6.4 | 20.9 | 0.00 | 0.00 | 0.00 | 81 | 1008.8 |
| 20260506084839 | 18 | 168 | 1.6 | 11.3 | 0.00 | 0.00 | 0.00 | 81 | 1008.8 |
| 20260506083334 | 17 | 227 | 4.8 | 16.1 | 0.00 | 0.00 | 0.00 | 82 | 1009.0 |
| 20260506081824 | 17 | 217 | 4.8 | 11.3 | 0.00 | 0.00 | 0.00 | 82 | 1009.0 |
| 20260506080322 | 17 | 199 | 3.2 | 12.9 | 0.00 | 0.00 | 0.00 | 82 | 1009.1 |
| 20260506073336 | 18 | 214 | 1.6 | 9.7 | 0.00 | 0.00 | 0.00 | 80 | 1009.2 |
| 20260506071848 | 18 | 209 | 3.2 | 8.0 | 0.00 | 0.00 | 0.00 | 80 | 1009.3 |
| 20260506070357 | 18 | 221 | 3.2 | 9.7 | 0.00 | 0.00 | 0.00 | 79 | 1009.5 |
| 20260506061815 | 19 | 227 | 4.8 | 12.9 | 0.00 | 0.00 | 0.00 | 75 | 1009.6 |
| 20260506060326 | 19 | 205 | 3.2 | 12.9 | 0.00 | 0.00 | 0.00 | 75 | 1009.6 |
| 20260506050342 | 19 | 205 | 6.4 | 17.7 | 0.00 | 0.00 | 0.00 | 71 | 1009.9 |
| 20260506044851 | 19 | 217 | 8.0 | 19.3 | 0.00 | 0.00 | 0.00 | 70 | 1010.0 |
| 20260506043317 | 20 | 194 | 4.8 | 16.1 | 0.00 | 0.00 | 0.00 | 69 | 1010.0 |
| 20260506041826 | 20 | 217 | 4.8 | 16.1 | 0.00 | 0.00 | 0.00 | 68 | 1010.0 |
| 20260506040325 | 20 | 206 | 4.8 | 11.3 | 0.00 | 0.00 | 0.00 | 68 | 1010.0 |
| 20260506034818 | 20 | 217 | 4.8 | 20.9 | 0.00 | 0.00 | 0.00 | 67 | 1009.9 |
| 20260506033329 | 20 | 224 | 8.0 | 17.7 | 0.00 | 0.00 | 0.00 | 66 | 1009.8 |
| 20260506031821 | 20 | 213 | 3.2 | 14.5 | 0.00 | 0.00 | 0.00 | 66 | 1009.9 |
| 20260506030315 | 20 | 216 | 3.2 | 11.3 | 0.00 | 0.00 | 0.00 | 65 | 1009.9 |
| 20260506024828 | 20 | 234 | 6.4 | 17.7 | 0.00 | 0.00 | 0.00 | 64 | 1010.0 |
| 20260506023325 | 20 | 221 | 4.8 | 11.3 | 0.00 | 0.00 | 0.00 | 64 | 1010.0 |
| 20260506021857 | 21 | 218 | 4.8 | 14.5 | 0.00 | 0.00 | 0.00 | 61 | 1010.1 |
| 20260506021826 | 21 | 218 | 4.8 | 14.5 | 0.00 | 0.00 | 0.00 | 61 | 1010.1 |
| 20260506020319 | 21 | 189 | 1.6 | 9.7 | 0.00 | 0.00 | 0.00 | 59 | 1010.0 |
| 20260506014818 | 22 | 215 | 6.4 | 12.9 | 0.00 | 0.00 | 0.00 | 56 | 1009.9 |
| 20260506013349 | 22 | 216 | 3.2 | 11.3 | 0.00 | 0.00 | 0.00 | 53 | 1009.7 |
| 20260506011821 | 23 | 134 | 3.2 | 8.0 | 0.00 | 0.00 | 0.00 | 50 | 1009.6 |
| 20260506010315 | 23 | 217 | 4.8 | 19.3 | 0.00 | 0.00 | 0.00 | 48 | 1009.2 |
| 20260506004826 | 23 | 212 | 8.0 | 20.9 | 0.00 | 0.00 | 0.00 | 47 | 1009.2 |
| 20260506003324 | 23 | 142 | 4.8 | 25.7 | 0.00 | 0.00 | 0.00 | 46 | 1009.0 |
| 20260506001838 | 24 | 181 | 8.0 | 19.3 | 0.00 | 0.00 | 0.00 | 46 | 1008.9 |
| 20260506000330 | 24 | 146 | 8.0 | 22.5 | 0.00 | 0.00 | 0.00 | 46 | 1008.7 |
| 20260505234839 | 24 | 242 | 8.0 | 24.1 | 0.00 | 0.00 | 0.00 | 46 | 1008.6 |
| 20260505233347 | 25 | 188 | 6.4 | 27.4 | 0.00 | 0.00 | 0.00 | 46 | 1008.5 |
| 20260505231822 | 25 | 224 | 9.7 | 16.1 | 0.00 | 0.00 | 0.00 | 45 | 1008.4 |
| 20260505230334 | 25 | 242 | 9.7 | 22.5 | 0.00 | 0.00 | 0.00 | 44 | 1008.4 |
| 20260505224829 | 26 | 191 | 11.3 | 22.5 | 0.00 | 0.00 | 0.00 | 41 | 1008.3 |
| 20260505223324 | 26 | 213 | 16.1 | 35.4 | 0.00 | 0.00 | 0.00 | 38 | 1008.0 |
| 20260505221822 | 26 | 232 | 8.0 | 24.1 | 0.00 | 0.00 | 0.00 | 38 | 1008.0 |
| 20260505220316 | 26 | 205 | 6.4 | 27.4 | 0.00 | 0.00 | 0.00 | 36 | 1008.0 |
| 20260505214828 | 26 | 284 | 9.7 | 33.8 | 0.00 | 0.00 | 0.00 | 36 | 1008.0 |
| 20260505213325 | 26 | 190 | 14.5 | 33.8 | 0.00 | 0.00 | 0.00 | 36 | 1007.9 |
| 20260505211851 | 26 | 208 | 8.0 | 33.8 | 0.00 | 0.00 | 0.00 | 35 | 1007.9 |
| 20260505210323 | 26 | 209 | 12.9 | 27.4 | 0.00 | 0.00 | 0.00 | 34 | 1008.1 |
| 20260505204832 | 27 | 207 | 4.8 | 25.7 | 0.00 | 0.00 | 0.00 | 34 | 1007.8 |
| 20260505203344 | 27 | 259 | 3.2 | 19.3 | 0.00 | 0.00 | 0.00 | 34 | 1007.9 |